»·PEaware :: SKY73 KORS-KEAT

SKY73 :: KORS-KEAT

FLIGHT INFORMATION

Flight Status: Arrived
Operator:
Sky High Charters
More flights by this operator :: More flights under this callsign
Pilot: Anonymous 27411 (27411)
Aircraft: BEECH AIRCRAFT BARON
(BE58)
More flights by this aircraft type
Origin: KORS Orcas Island
United States
Destination: KEAT Pangborn Meml
United States
More flights between these airports :: More routes between these airports
Route: FEGBA2 FEGBA JIGEB V495 SEA V2 ELN V25 EAT
File this flight plan on PilotEdge
Remarks: gps upgraded and plan to hand fly the fancy rnav y rwy 30 from eat. call sign sky 73 thank you!--
Altitude:
(Current/Filed)
9,000ft
Speed:
(Current/Filed)
175kts
Departed: 09-Jan-22 07:40 PM
Arrived: 09-Jan-22 09:00 PM
Distance/Time
Traveled:
134nm/1:19
Distance/Time
To Go:
Arrived

Flight Plot

Page will automatically refresh every two minutes.

Flight plan parsing failed; only flown route is shown


Map Options




Map Legend


Flown Route
Filed Route
Departure Airport
Arrival Airport
Navaid (VOR, NDB)
Fix

Horizontal Profiles

Position Reports

Time Latitude Longitude Heading Altitude Ground
Speed
09-Jan-22 19:29 48.705138 -122.909752 182 36ft 0kts
09-Jan-22 19:30 48.705138 -122.909752 182 36ft 0kts
09-Jan-22 19:31 48.705138 -122.909752 182 36ft 0kts
09-Jan-22 19:32 48.704487 -122.909938 238 38ft 0kts
09-Jan-22 19:33 48.704487 -122.909938 238 38ft 0kts
09-Jan-22 19:34 48.704487 -122.909938 238 38ft 0kts
09-Jan-22 19:35 48.704675 -122.910000 0 37ft 9kts
09-Jan-22 19:36 48.709796 -122.909985 0 24ft 19kts
09-Jan-22 19:38 48.712000 -122.909980 344 20ft 0kts
09-Jan-22 19:39 48.712013 -122.909988 334 20ft 0kts
09-Jan-22 19:40 48.694781 -122.911914 185 455ft 123kts
09-Jan-22 19:41 48.660217 -122.904317 166 2012ft 137kts
09-Jan-22 19:42 48.620697 -122.902311 193 3331ft 137kts
09-Jan-22 19:43 48.584285 -122.902782 171 4757ft 135kts
09-Jan-22 19:44 48.544950 -122.890680 173 5780ft 142kts
09-Jan-22 19:45 48.511790 -122.905410 215 7045ft 123kts
09-Jan-22 19:46 48.483297 -122.926747 195 8237ft 120kts
09-Jan-22 19:47 48.450152 -122.940818 180 8990ft 130kts
09-Jan-22 19:48 48.411034 -122.960419 192 9056ft 158kts
09-Jan-22 19:49 48.366709 -122.972900 181 8825ft 172kts
09-Jan-22 19:50 48.322845 -122.992094 194 9004ft 159kts
09-Jan-22 19:51 48.279369 -123.010384 189 8978ft 166kts
09-Jan-22 19:52 48.235110 -123.018806 191 9154ft 157kts
09-Jan-22 19:53 48.195880 -122.990970 153 9027ft 163kts
09-Jan-22 19:54 48.155336 -122.959608 153 8959ft 166kts
09-Jan-22 19:55 48.119181 -122.918944 158 9039ft 163kts
09-Jan-22 19:56 48.079798 -122.886305 150 9112ft 161kts
09-Jan-22 19:57 48.040399 -122.852401 152 9010ft 167kts
09-Jan-22 19:58 48.001254 -122.816841 156 9022ft 163kts
09-Jan-22 19:59 47.964164 -122.779273 143 9027ft 165kts
09-Jan-22 19:59 47.931264 -122.752012 150 9131ft 158kts
09-Jan-22 20:01 47.884382 -122.715130 148 9144ft 161kts
09-Jan-22 20:02 47.847702 -122.672381 155 8975ft 172kts
09-Jan-22 20:03 47.803309 -122.646013 149 9219ft 168kts
09-Jan-22 20:03 47.772188 -122.606024 152 9048ft 186kts
09-Jan-22 20:04 47.728126 -122.569516 154 9043ft 185kts
09-Jan-22 20:05 47.683721 -122.530049 153 8940ft 183kts
09-Jan-22 20:07 47.633099 -122.484919 153 9013ft 179kts
09-Jan-22 20:07 47.597482 -122.453225 153 9090ft 178kts
09-Jan-22 20:08 47.554831 -122.415347 154 9144ft 179kts
09-Jan-22 20:09 47.511642 -122.377057 153 9119ft 181kts
09-Jan-22 20:10 47.468367 -122.338768 154 9047ft 183kts
09-Jan-22 20:11 47.431954 -122.286243 116 8906ft 194kts
09-Jan-22 20:12 47.414264 -122.209792 112 8803ft 194kts
09-Jan-22 20:13 47.398123 -122.134719 112 8934ft 188kts
09-Jan-22 20:14 47.382302 -122.061016 112 9125ft 186kts
09-Jan-22 20:15 47.366188 -121.986320 112 9046ft 194kts
09-Jan-22 20:16 47.349783 -121.910327 112 9011ft 194kts
09-Jan-22 20:17 47.333380 -121.834682 111 8984ft 193kts
09-Jan-22 20:18 47.316879 -121.758866 111 8960ft 193kts
09-Jan-22 20:19 47.300337 -121.683118 112 8968ft 192kts
09-Jan-22 20:20 47.283473 -121.606292 111 8793ft 197kts
09-Jan-22 20:21 47.266775 -121.530319 111 8724ft 191kts
09-Jan-22 20:22 47.250534 -121.456728 111 8725ft 186kts
09-Jan-22 20:23 47.234518 -121.384433 112 8761ft 184kts
09-Jan-22 20:24 47.218725 -121.313404 113 8802ft 181kts
09-Jan-22 20:25 47.203115 -121.243450 113 8841ft 178kts
09-Jan-22 20:26 47.187734 -121.174730 113 8878ft 175kts
09-Jan-22 20:27 47.172396 -121.106418 114 8903ft 175kts
09-Jan-22 20:28 47.156958 -121.037897 114 8927ft 176kts
09-Jan-22 20:29 47.141439 -120.969239 115 8950ft 177kts
09-Jan-22 20:30 47.125849 -120.900536 115 8976ft 177kts
09-Jan-22 20:31 47.110250 -120.831976 115 9003ft 177kts
09-Jan-22 20:32 47.094570 -120.763278 115 9030ft 177kts
09-Jan-22 20:33 47.078838 -120.694588 115 9052ft 177kts
09-Jan-22 20:34 47.062824 -120.624885 115 8957ft 180kts
09-Jan-22 20:35 47.046749 -120.555123 115 8882ft 181kts
09-Jan-22 20:36 47.030634 -120.485275 112 8810ft 181kts
09-Jan-22 20:37 47.064309 -120.431499 22 8780ft 190kts
09-Jan-22 20:38 47.111005 -120.400202 22 9198ft 182kts
09-Jan-22 20:39 47.158860 -120.367932 21 9117ft 200kts
09-Jan-22 20:40 47.210265 -120.333196 21 8874ft 200kts
09-Jan-22 20:41 47.259462 -120.299905 20 8968ft 191kts
09-Jan-22 20:42 47.307462 -120.267391 19 9022ft 191kts
09-Jan-22 20:43 47.356316 -120.234189 20 9070ft 194kts
09-Jan-22 20:44 47.405803 -120.200496 20 9052ft 196kts
09-Jan-22 20:45 47.434692 -120.136614 109 8565ft 206kts
09-Jan-22 20:46 47.404796 -120.065934 112 7776ft 204kts
09-Jan-22 20:47 47.391062 -119.990663 64 7561ft 195kts
09-Jan-22 20:48 47.387931 -119.911939 122 6609ft 212kts
09-Jan-22 20:49 47.341647 -119.855675 163 4831ft 215kts
09-Jan-22 20:50 47.290991 -119.852233 199 5121ft 163kts
09-Jan-22 20:51 47.251674 -119.884987 230 5033ft 163kts
09-Jan-22 20:52 47.232955 -119.944757 266 4663ft 172kts
09-Jan-22 20:53 47.244093 -120.013292 303 3897ft 179kts
09-Jan-22 20:54 47.280387 -120.055427 333 3765ft 163kts
09-Jan-22 20:55 47.318645 -120.084323 332 2656ft 131kts
09-Jan-22 20:56 47.347539 -120.106368 332 2966ft 117kts
09-Jan-22 20:57 47.365071 -120.149436 279 2523ft 155kts
09-Jan-22 20:58 47.389612 -120.193645 315 1382ft 103kts
09-Jan-22 20:59 47.398364 -120.206385 139 1226ft 11kts
09-Jan-22 21:00 47.396079 -120.201298 53 1233ft 0kts
09-Jan-22 21:01 47.396079 -120.201298 53 1233ft 0kts
09-Jan-22 21:02 47.396890 -120.200190 119 1238ft 0kts

Navigation Log

Ident Type
Flight plan parsing failed, navigation log unavailable